createdAt,value
2022-08-03T00:02:36.374Z,40.24
2022-08-03T00:05:40.135Z,39.79
2022-08-03T00:09:05.141Z,39.11
2022-08-03T00:12:08.740Z,38.83
2022-08-03T00:15:16.498Z,38.91
2022-08-03T00:18:20.255Z,38.48
2022-08-03T00:21:23.407Z,38.25
2022-08-03T00:24:28.002Z,38.58
2022-08-03T00:27:32.657Z,38.42
2022-08-03T00:30:37.263Z,38.58
2022-08-03T00:33:59.720Z,38.24
2022-08-03T00:37:05.972Z,38.03
2022-08-03T00:40:13.750Z,38.36
2022-08-03T00:43:19.548Z,38.16
2022-08-03T00:46:23.042Z,37.81
2022-08-03T00:49:26.242Z,38.29
2022-08-03T00:52:29.436Z,38.33
2022-08-03T00:55:34.858Z,38.70
2022-08-03T00:58:38.670Z,38.44
2022-08-03T01:01:41.852Z,39.03
2022-08-03T01:04:44.983Z,38.60
2022-08-03T01:08:00.203Z,39.26
2022-08-03T01:11:13.416Z,38.81
2022-08-03T01:14:22.631Z,38.90
2022-08-03T01:17:38.209Z,38.72
2022-08-03T01:20:45.736Z,38.67
2022-08-03T01:24:04.103Z,38.37
2022-08-03T01:27:12.130Z,38.54
2022-08-03T01:30:16.925Z,38.51
2022-08-03T01:33:23.961Z,38.38
2022-08-03T01:36:33.888Z,38.59
2022-08-03T01:39:39.816Z,37.80
2022-08-03T01:42:45.517Z,38.85
2022-08-03T01:45:51.033Z,38.83
2022-08-03T01:48:55.078Z,38.64
2022-08-03T01:52:04.086Z,38.85
2022-08-03T01:55:10.990Z,38.78
2022-08-03T01:58:16.378Z,39.02
2022-08-03T02:01:22.954Z,39.03
2022-08-03T02:04:29.097Z,39.56
2022-08-03T02:07:34.327Z,39.48
2022-08-03T02:10:38.937Z,39.47
2022-08-03T02:13:42.986Z,39.10
2022-08-03T02:16:50.408Z,38.65
2022-08-03T02:19:55.100Z,38.64
2022-08-03T02:22:58.401Z,38.62
2022-08-03T02:26:05.765Z,38.82
2022-08-03T02:29:15.058Z,38.07
2022-08-03T02:32:25.520Z,37.96
2022-08-03T02:35:31.916Z,38.42
2022-08-03T02:38:37.974Z,38.71
2022-08-03T02:41:46.509Z,38.77
2022-08-03T02:44:54.591Z,38.66
2022-08-03T02:48:04.058Z,38.34
2022-08-03T02:51:07.403Z,38.59
2022-08-03T02:54:12.001Z,38.99
2022-08-03T02:57:16.490Z,38.72
2022-08-03T03:00:28.466Z,39.09
2022-08-03T03:03:39.997Z,38.92
2022-08-03T03:06:49.529Z,39.07
2022-08-03T03:09:53.662Z,38.51
2022-08-03T03:12:59.068Z,38.64
2022-08-03T03:16:05.067Z,38.85
2022-08-03T03:19:11.429Z,38.79
2022-08-03T03:22:16.439Z,38.71
2022-08-03T03:25:21.477Z,38.01
2022-08-03T03:28:25.470Z,38.65
2022-08-03T03:31:28.830Z,38.81
2022-08-03T03:34:34.197Z,38.55
2022-08-03T03:37:37.307Z,39.41
2022-08-03T03:40:40.672Z,39.31
2022-08-03T03:43:44.673Z,39.97
2022-08-03T03:46:47.891Z,40.76
2022-08-03T03:49:53.854Z,40.69
2022-08-03T03:52:56.961Z,40.88
2022-08-03T03:56:02.627Z,40.85
2022-08-03T03:59:06.382Z,40.56
2022-08-03T04:02:10.728Z,40.80
2022-08-03T04:05:47.897Z,40.73
2022-08-03T04:09:08.654Z,40.46
2022-08-03T04:12:11.880Z,40.49
2022-08-03T04:15:16.772Z,40.09
2022-08-03T04:18:22.671Z,39.76
2022-08-03T04:21:31.513Z,39.85
2022-08-03T04:24:40.384Z,42.15
2022-08-03T04:27:44.908Z,43.47
2022-08-03T04:31:08.639Z,41.95
2022-08-03T04:34:11.734Z,40.97
2022-08-03T04:37:22.973Z,40.85
2022-08-03T04:40:31.562Z,40.41
2022-08-03T04:43:35.793Z,40.63
2022-08-03T04:46:41.077Z,40.54
2022-08-03T04:49:54.253Z,40.28
2022-08-03T04:52:58.759Z,40.78
2022-08-03T04:56:05.760Z,40.41
2022-08-03T04:59:09.160Z,40.68
2022-08-03T05:02:12.418Z,41.16
2022-08-03T05:05:15.987Z,42.29
2022-08-03T05:08:27.651Z,41.45
2022-08-03T05:11:31.681Z,41.86
2022-08-03T05:14:37.085Z,41.18
2022-08-03T05:17:40.442Z,41.34
2022-08-03T05:20:43.784Z,39.71
2022-08-03T05:23:48.256Z,41.11
2022-08-03T05:26:51.340Z,40.87
2022-08-03T05:29:54.438Z,41.47
2022-08-03T05:32:57.615Z,41.44
2022-08-03T05:36:04.252Z,41.83
2022-08-03T05:39:09.090Z,42.05
2022-08-03T05:42:12.219Z,41.81
2022-08-03T05:45:17.724Z,41.39
2022-08-03T05:48:20.878Z,41.10
2022-08-03T05:51:23.999Z,41.09
2022-08-03T05:54:57.334Z,41.33
2022-08-03T05:57:51.638Z,42.09
2022-08-03T06:00:58.251Z,41.28
2022-08-03T06:04:01.327Z,41.32
2022-08-03T06:07:04.385Z,41.11
2022-08-03T06:10:37.580Z,40.84
2022-08-03T06:13:33.488Z,41.47
2022-08-03T06:16:36.668Z,41.03
2022-08-03T06:19:39.856Z,42.22
2022-08-03T06:22:50.566Z,41.72
2022-08-03T06:25:55.928Z,41.52
2022-08-03T06:28:59.301Z,41.99
2022-08-03T06:32:02.440Z,41.33
2022-08-03T06:35:06.847Z,41.22
2022-08-03T06:38:10.400Z,41.42
2022-08-03T06:41:15.170Z,40.92
2022-08-03T06:44:18.271Z,40.99
2022-08-03T06:47:21.360Z,40.82
2022-08-03T06:50:26.249Z,40.97
2022-08-03T06:53:29.519Z,40.97
2022-08-03T06:56:34.030Z,40.75
2022-08-03T07:00:09.789Z,41.53
2022-08-03T07:03:00.387Z,41.87
2022-08-03T07:06:03.530Z,41.83
2022-08-03T07:09:06.718Z,41.85
2022-08-03T07:12:11.326Z,41.36
2022-08-03T07:15:20.499Z,40.97
2022-08-03T07:18:40.235Z,40.12
2022-08-03T07:21:43.582Z,39.55
2022-08-03T07:24:47.793Z,38.92
2022-08-03T07:27:52.590Z,38.79
2022-08-03T07:30:55.671Z,39.05
2022-08-03T07:33:58.739Z,39.05
2022-08-03T07:37:01.891Z,38.74
2022-08-03T07:40:06.633Z,39.25
2022-08-03T07:43:11.164Z,39.33
2022-08-03T07:46:15.032Z,39.77
2022-08-03T07:49:18.224Z,39.53
2022-08-03T07:52:39.213Z,39.85
2022-08-03T07:55:42.515Z,39.66
2022-08-03T07:58:46.979Z,40.25
2022-08-03T08:01:53.114Z,40.14
2022-08-03T08:04:56.184Z,40.05
2022-08-03T08:07:59.306Z,40.00
2022-08-03T08:11:02.552Z,39.21
2022-08-03T08:14:09.828Z,39.74
2022-08-03T08:17:13.142Z,39.02
2022-08-03T08:20:27.744Z,39.45
2022-08-03T08:23:42.436Z,38.63
2022-08-03T08:26:46.695Z,38.45
2022-08-03T08:29:54.161Z,38.80
2022-08-03T08:32:58.870Z,38.62
2022-08-03T08:36:05.177Z,38.32
2022-08-03T08:39:08.269Z,38.16
2022-08-03T08:42:11.523Z,38.48
2022-08-03T08:45:16.184Z,38.38
2022-08-03T08:48:25.681Z,38.32
2022-08-03T08:51:54.574Z,38.46
2022-08-03T08:55:00.216Z,38.37
2022-08-03T08:58:07.449Z,38.88
2022-08-03T09:01:12.268Z,38.33
2022-08-03T09:04:15.592Z,38.55
2022-08-03T09:07:20.573Z,37.91
2022-08-03T09:10:23.737Z,38.05
2022-08-03T09:13:26.888Z,38.25
2022-08-03T09:16:31.409Z,38.31
2022-08-03T09:19:35.945Z,38.27
2022-08-03T09:22:54.687Z,37.53
2022-08-03T09:26:01.611Z,38.08
2022-08-03T09:29:13.223Z,37.79
2022-08-03T09:32:22.201Z,38.38
2022-08-03T09:35:51.779Z,37.34
2022-08-03T09:39:03.523Z,38.09
2022-08-03T09:42:08.666Z,38.02
2022-08-03T09:45:28.087Z,37.91
2022-08-03T09:48:35.072Z,38.02
2022-08-03T09:52:32.734Z,37.74
2022-08-03T09:55:02.887Z,38.24
2022-08-03T09:58:09.578Z,37.64
2022-08-03T10:01:23.725Z,37.77
2022-08-03T10:04:30.336Z,37.23
2022-08-03T10:07:46.139Z,37.36
2022-08-03T10:10:53.982Z,37.15
2022-08-03T10:14:01.075Z,37.16
2022-08-03T10:17:05.040Z,37.06
2022-08-03T10:20:11.317Z,36.51
2022-08-03T10:23:16.167Z,36.54
2022-08-03T10:26:23.703Z,36.83
2022-08-03T10:29:30.328Z,36.76
2022-08-03T10:32:37.275Z,37.29
2022-08-03T10:35:43.546Z,37.24
2022-08-03T10:38:52.686Z,37.17
2022-08-03T10:41:58.332Z,37.23
2022-08-03T10:45:06.645Z,36.79
2022-08-03T10:48:10.812Z,37.63
2022-08-03T10:51:15.689Z,37.67
2022-08-03T10:55:03.104Z,37.33
2022-08-03T10:58:11.266Z,36.66
2022-08-03T11:01:15.114Z,36.80
2022-08-03T11:04:20.076Z,36.62
2022-08-03T11:07:26.461Z,36.81
2022-08-03T11:10:32.613Z,36.96
2022-08-03T11:13:35.790Z,36.59
2022-08-03T11:16:41.015Z,36.68
2022-08-03T11:19:57.466Z,36.63
2022-08-03T11:23:03.065Z,36.62
2022-08-03T11:26:13.791Z,36.87
2022-08-03T11:29:29.296Z,37.20
2022-08-03T11:33:01.419Z,37.45
2022-08-03T11:36:04.879Z,37.11
2022-08-03T11:39:16.886Z,36.97
2022-08-03T11:42:47.344Z,36.80
2022-08-03T11:45:59.909Z,36.79
2022-08-03T11:49:10.254Z,37.42
2022-08-03T11:52:14.416Z,37.84
2022-08-03T11:55:22.069Z,37.33
2022-08-03T11:58:58.315Z,38.19
2022-08-03T12:01:48.977Z,37.76
2022-08-03T12:04:52.653Z,37.49
2022-08-03T12:08:03.150Z,37.37
2022-08-03T12:11:13.017Z,37.50
2022-08-03T12:14:50.128Z,37.36
2022-08-03T12:17:42.457Z,36.75
2022-08-03T12:20:46.514Z,36.96
2022-08-03T12:23:49.596Z,36.83
2022-08-03T12:26:58.536Z,37.23
2022-08-03T12:30:03.325Z,37.26
2022-08-03T12:33:17.298Z,36.83
2022-08-03T12:36:22.120Z,36.91
2022-08-03T12:39:27.998Z,36.07
2022-08-03T12:42:34.943Z,36.61
2022-08-03T12:45:38.441Z,36.00
2022-08-03T12:49:01.145Z,35.99
2022-08-03T12:52:07.627Z,36.16
2022-08-03T12:55:21.824Z,36.12
2022-08-03T12:58:35.015Z,36.68
2022-08-03T13:01:55.211Z,36.77
2022-08-03T13:05:00.231Z,37.02
2022-08-03T13:08:03.382Z,36.68
2022-08-03T13:11:20.499Z,37.12
2022-08-03T13:14:24.994Z,37.16
2022-08-03T13:17:30.270Z,36.88
2022-08-03T13:20:33.880Z,37.24
2022-08-03T13:23:37.085Z,37.60
2022-08-03T13:26:40.138Z,38.64
2022-08-03T13:29:44.895Z,38.86
2022-08-03T13:32:48.018Z,39.47
2022-08-03T13:35:51.115Z,38.50
2022-08-03T13:38:54.603Z,38.50
2022-08-03T13:41:58.783Z,39.10
2022-08-03T13:45:04.234Z,39.00
2022-08-03T13:48:07.790Z,39.04
2022-08-03T13:51:22.255Z,39.11
2022-08-03T13:54:26.220Z,38.63
2022-08-03T13:58:05.918Z,38.71
2022-08-03T14:00:54.129Z,37.93
2022-08-03T14:03:58.373Z,37.95
2022-08-03T14:07:04.100Z,38.70
2022-08-03T14:10:08.475Z,38.37
2022-08-03T14:13:12.479Z,37.87
2022-08-03T14:16:17.142Z,37.69
2022-08-03T14:19:21.357Z,38.29
2022-08-03T14:22:28.777Z,37.59
2022-08-03T14:25:43.024Z,37.29
2022-08-03T14:28:46.907Z,37.30
2022-08-03T14:32:12.051Z,37.80
2022-08-03T14:35:14.611Z,37.67
2022-08-03T14:38:18.379Z,37.69
2022-08-03T14:41:21.440Z,37.14
2022-08-03T14:44:24.557Z,37.64
2022-08-03T14:47:29.024Z,37.00
2022-08-03T14:50:41.926Z,37.89
2022-08-03T14:53:48.777Z,38.27
2022-08-03T14:56:51.957Z,38.37
2022-08-03T14:59:58.189Z,37.57
2022-08-03T15:03:02.954Z,38.08
2022-08-03T15:06:06.153Z,39.18
2022-08-03T15:09:23.662Z,39.80
2022-08-03T15:12:27.196Z,38.66
2022-08-03T15:15:30.460Z,38.64
2022-08-03T15:18:34.953Z,39.09
2022-08-03T15:21:46.979Z,38.80
2022-08-03T15:24:51.072Z,38.44
2022-08-03T15:28:03.445Z,38.16
2022-08-03T15:31:07.722Z,37.50
2022-08-03T15:34:12.863Z,37.13
2022-08-03T15:37:16.616Z,37.74
2022-08-03T15:40:19.931Z,38.02
2022-08-03T15:43:23.076Z,38.16
2022-08-03T15:46:29.635Z,38.46
2022-08-03T15:49:34.526Z,38.70
2022-08-03T15:52:37.592Z,39.02
2022-08-03T15:55:40.661Z,39.28
2022-08-03T15:59:04.173Z,39.43
2022-08-03T16:02:07.106Z,39.83
2022-08-03T16:05:11.791Z,43.30
2022-08-03T16:08:14.879Z,42.27
2022-08-03T16:11:18.008Z,43.14
2022-08-03T16:14:32.518Z,42.83
2022-08-03T16:17:42.364Z,42.95
2022-08-03T16:20:48.359Z,43.46
2022-08-03T16:23:51.591Z,43.93
2022-08-03T16:26:54.710Z,45.29
2022-08-03T16:29:57.802Z,45.89
2022-08-03T16:33:00.919Z,45.77
2022-08-03T16:36:05.603Z,45.31
2022-08-03T16:39:08.731Z,44.41
2022-08-03T16:42:11.905Z,44.44
2022-08-03T16:45:15.756Z,45.06
2022-08-03T16:48:20.064Z,45.22
2022-08-03T16:51:24.546Z,45.34
2022-08-03T16:54:43.411Z,45.28
2022-08-03T16:57:59.069Z,45.08
2022-08-03T17:01:24.430Z,45.95
2022-08-03T17:04:27.113Z,47.36
2022-08-03T17:07:33.687Z,47.12
2022-08-03T17:10:37.190Z,47.34
2022-08-03T17:13:41.307Z,48.44
2022-08-03T17:16:52.049Z,48.54
2022-08-03T17:19:57.619Z,48.00
2022-08-03T17:23:35.189Z,47.61
2022-08-03T17:26:43.295Z,46.37
2022-08-03T17:29:50.802Z,46.29
2022-08-03T17:32:57.536Z,45.96
2022-08-03T17:36:01.324Z,46.14
2022-08-03T17:39:07.655Z,45.48
2022-08-03T17:42:29.216Z,44.92
2022-08-03T17:45:55.079Z,44.82
2022-08-03T17:48:58.155Z,44.89
2022-08-03T17:52:04.101Z,45.09
2022-08-03T17:55:58.553Z,45.78
2022-08-03T17:58:54.772Z,45.68
2022-08-03T18:02:30.437Z,46.28
2022-08-03T18:06:10.723Z,45.76
2022-08-03T18:09:05.341Z,45.34
2022-08-03T18:12:30.260Z,45.74
2022-08-03T18:15:38.940Z,45.23
2022-08-03T18:18:43.721Z,45.31
2022-08-03T18:22:03.498Z,44.66
2022-08-03T18:25:09.710Z,45.57
2022-08-03T18:28:19.591Z,45.45
2022-08-03T18:31:59.802Z,45.36
2022-08-03T18:34:53.783Z,44.54
2022-08-03T18:38:01.058Z,44.77
2022-08-03T18:41:07.042Z,44.36
2022-08-03T18:44:53.358Z,44.35
2022-08-03T18:47:54.969Z,44.51
2022-08-03T18:51:03.045Z,44.22
2022-08-03T18:54:59.128Z,44.64
2022-08-03T18:57:46.404Z,43.88
2022-08-03T19:00:58.428Z,43.51
2022-08-03T19:04:10.465Z,43.42
2022-08-03T19:07:23.397Z,43.72
2022-08-03T19:10:31.487Z,43.43
2022-08-03T19:13:41.569Z,42.99
2022-08-03T19:16:49.824Z,42.89
2022-08-03T19:19:53.608Z,42.56
2022-08-03T19:22:58.440Z,42.47
2022-08-03T19:26:04.699Z,43.08
2022-08-03T19:29:59.163Z,42.98
2022-08-03T19:32:54.933Z,42.96
2022-08-03T19:35:59.157Z,43.05
2022-08-03T19:39:09.009Z,43.12
2022-08-03T19:42:20.414Z,43.94
2022-08-03T19:46:04.417Z,43.10
2022-08-03T19:49:02.788Z,43.25
2022-08-03T19:52:08.024Z,43.75
2022-08-03T19:55:12.736Z,43.11
2022-08-03T19:58:24.353Z,43.22
2022-08-03T20:01:32.224Z,43.38
2022-08-03T20:04:56.008Z,43.23
2022-08-03T20:08:02.222Z,42.68
2022-08-03T20:11:05.499Z,42.30
2022-08-03T20:14:11.657Z,42.97
2022-08-03T20:17:21.130Z,42.78
2022-08-03T20:20:28.612Z,42.77
2022-08-03T20:23:39.187Z,42.92
2022-08-03T20:27:05.191Z,43.75
2022-08-03T20:30:12.169Z,44.11
2022-08-03T20:33:18.705Z,43.88
2022-08-03T20:36:23.972Z,44.06
2022-08-03T20:39:30.236Z,44.16
2022-08-03T20:42:34.890Z,44.63
2022-08-03T20:46:00.075Z,44.65
2022-08-03T20:49:03.790Z,44.36
2022-08-03T20:52:09.004Z,43.80
2022-08-03T20:55:47.865Z,43.75
2022-08-03T20:58:50.291Z,43.42
2022-08-03T21:01:54.026Z,43.75
2022-08-03T21:04:59.045Z,44.00
2022-08-03T21:08:12.514Z,43.52
2022-08-03T21:11:19.988Z,43.87
2022-08-03T21:14:32.946Z,43.83
2022-08-03T21:17:43.441Z,44.48
2022-08-03T21:20:48.428Z,44.48
2022-08-03T21:23:54.656Z,44.50
2022-08-03T21:26:59.782Z,44.56
2022-08-03T21:30:05.149Z,44.52
2022-08-03T21:33:08.245Z,44.63
2022-08-03T21:36:12.130Z,44.93
2022-08-03T21:39:16.778Z,44.70
2022-08-03T21:42:21.105Z,44.46
2022-08-03T21:45:24.559Z,44.66
2022-08-03T21:48:29.208Z,44.25
2022-08-03T21:51:34.058Z,44.51
2022-08-03T21:54:42.784Z,43.99
2022-08-03T21:57:52.167Z,44.46
2022-08-03T22:00:55.886Z,44.37
2022-08-03T22:03:59.762Z,44.09
2022-08-03T22:07:03.510Z,44.71
2022-08-03T22:10:08.802Z,44.75
2022-08-03T22:13:12.775Z,44.06
2022-08-03T22:16:17.147Z,44.70
2022-08-03T22:19:20.243Z,44.66
2022-08-03T22:22:24.325Z,44.62
2022-08-03T22:25:31.177Z,44.48
2022-08-03T22:28:35.159Z,44.59
2022-08-03T22:31:58.513Z,44.50
2022-08-03T22:35:05.989Z,44.76
2022-08-03T22:38:12.221Z,44.47
2022-08-03T22:41:19.698Z,44.29
2022-08-03T22:44:23.457Z,44.08
2022-08-03T22:47:26.673Z,44.44
2022-08-03T22:50:31.234Z,43.95
2022-08-03T22:53:37.426Z,43.70
2022-08-03T22:56:42.582Z,43.83
2022-08-03T22:59:47.363Z,44.22
2022-08-03T23:02:52.239Z,44.34
2022-08-03T23:06:01.532Z,44.67
2022-08-03T23:09:09.141Z,44.27
2022-08-03T23:12:15.962Z,44.51
2022-08-03T23:15:19.345Z,44.46
2022-08-03T23:18:24.007Z,44.48
2022-08-03T23:21:53.835Z,44.33
2022-08-03T23:24:53.007Z,44.29
2022-08-03T23:28:05.693Z,44.13
2022-08-03T23:31:09.670Z,43.78
2022-08-03T23:34:32.051Z,44.18
2022-08-03T23:38:10.762Z,43.98
2022-08-03T23:41:00.843Z,44.18
2022-08-03T23:44:05.855Z,43.69
2022-08-03T23:47:08.998Z,43.77
2022-08-03T23:50:12.610Z,43.71
2022-08-03T23:53:22.304Z,44.16
2022-08-03T23:56:33.395Z,44.12
2022-08-03T23:59:45.359Z,44.12
